Hauptseite
METAR-TAF:

METAR-TAF

Flughäfen :

Turin, Italien

Flugplatz Turin-Aeritalia

Breite: 45-05-20N, Länge: 007-36-20E, Höhe: 288 m

Beobachtung

Neuester Wetterbericht von vor 37 Minuten, um 10:50 UTC
Windstille
Temperatur 11°C
Luftfeuchtigkeit 71%
Luftdruck 1020 hPa
Sichtweite: 2500 m
feuchter Dunst

METAR: LIMA 231050Z 00000KT 2500 BR NSC 11/06 Q1020

Zeit: 12:27 (11:27 UTC)


TAF: fehlend

Wetterbeobachtungen und Prognosen von mehr als 4000 Flughäfen (METAR und TAF Bericht).

Die verfügbaren Stationen werden durch gelbe und rote Markierungen auf der Karte dargestellt.

Führen Sie die Maus auf sie, um den Namen der Station zu sehen.

Darauf klicken, um die Beobachtung von Wetterbeobachtungen und Prognosen zu sehen.

Um die Karte zu ändern : klicken Sie auf den grünen Tasten mit einem schwarzen Kreuz Zum Vergrößern, auf den grünen Button mit einem Gedankenstrich zu verkleinern, oder auf die grünen Pfeile für benachbarte Karten.


METAR-TAF: